createdAt,value
2019-05-22T00:01:29.220Z,85.77
2019-05-22T00:04:07.056Z,88.72
2019-05-22T00:06:40.041Z,87.53
2019-05-22T00:09:15.848Z,88.54
2019-05-22T00:11:46.431Z,88.39
2019-05-22T00:14:16.812Z,86.50
2019-05-22T00:16:46.810Z,84.95
2019-05-22T00:19:18.645Z,86.94
2019-05-22T00:21:54.089Z,84.96
2019-05-22T00:24:25.446Z,84.61
2019-05-22T00:26:55.991Z,85.22
2019-05-22T00:41:31.853Z,87.32
2019-05-22T00:44:02.936Z,86.89
2019-05-22T00:46:32.113Z,87.73
2019-05-22T00:49:01.359Z,85.84
2019-05-22T00:51:45.766Z,84.67
2019-05-22T00:54:34.328Z,83.49
2019-05-22T00:57:17.755Z,82.42
2019-05-22T00:59:49.770Z,80.75
2019-05-22T01:02:25.428Z,82.11
2019-05-22T01:04:56.733Z,82.74
2019-05-22T01:07:30.342Z,82.06
2019-05-22T01:10:00.010Z,82.53
2019-05-22T01:12:35.757Z,82.07
2019-05-22T01:15:09.065Z,81.84
2019-05-22T01:20:31.495Z,81.96
2019-05-22T01:23:03.007Z,83.75
2019-05-22T01:25:34.383Z,83.88
2019-05-22T01:28:09.374Z,81.22
2019-05-22T01:30:53.923Z,83.29
2019-05-22T01:33:28.029Z,84.22
2019-05-22T01:42:21.271Z,82.98
2019-05-22T01:45:05.869Z,84.04
2019-05-22T01:47:48.548Z,83.00
2019-05-22T01:50:25.746Z,82.89
2019-05-22T01:52:55.998Z,84.33
2019-05-22T01:55:29.387Z,83.06
2019-05-22T01:58:02.840Z,82.86
2019-05-22T02:00:36.800Z,80.94
2019-05-22T02:03:07.863Z,82.79
2019-05-22T02:05:38.142Z,82.90
2019-05-22T02:08:10.370Z,81.59
2019-05-22T02:10:42.206Z,81.23
2019-05-22T02:13:14.457Z,82.75
2019-05-22T02:15:45.811Z,81.87
2019-05-22T02:18:16.395Z,82.95
2019-05-22T02:20:47.157Z,83.08
2019-05-22T02:23:21.421Z,83.43
2019-05-22T02:25:51.129Z,84.15
2019-05-22T02:28:20.714Z,83.98
2019-05-22T02:30:49.904Z,84.42
2019-05-22T02:33:22.190Z,84.82
2019-05-22T02:35:56.356Z,84.66
2019-05-22T02:38:31.218Z,83.14
2019-05-22T02:41:07.386Z,81.55
2019-05-22T02:43:43.304Z,82.27
2019-05-22T02:46:14.399Z,81.70
2019-05-22T02:48:44.443Z,81.43
2019-05-22T02:51:15.428Z,81.45
2019-05-22T02:53:45.526Z,83.12
2019-05-22T02:56:18.890Z,82.43
2019-05-22T02:58:48.882Z,81.25
2019-05-22T03:01:20.338Z,82.85
2019-05-22T03:03:52.617Z,81.67
2019-05-22T03:06:21.918Z,81.52
2019-05-22T03:09:19.673Z,81.05
2019-05-22T03:11:59.224Z,79.37
2019-05-22T03:14:31.256Z,79.47
2019-05-22T03:17:07.844Z,79.58
2019-05-22T03:19:47.901Z,79.05
2019-05-22T03:22:21.464Z,80.88
2019-05-22T03:24:55.549Z,79.89
2019-05-22T03:27:40.342Z,79.18
2019-05-22T03:30:32.586Z,79.38
2019-05-22T03:33:07.016Z,81.56
2019-05-22T03:35:48.208Z,79.61
2019-05-22T03:38:18.939Z,79.15
2019-05-22T03:40:50.609Z,77.72
2019-05-22T03:43:22.515Z,78.07
2019-05-22T03:45:52.230Z,77.64
2019-05-22T03:48:23.366Z,76.91
2019-05-22T03:50:58.757Z,77.58
2019-05-22T03:53:32.963Z,77.58
2019-05-22T03:56:03.169Z,77.66
2019-05-22T03:58:34.680Z,78.00
2019-05-22T04:01:06.202Z,77.96
2019-05-22T04:03:36.117Z,78.02
2019-05-22T04:06:06.977Z,77.85
2019-05-22T04:08:37.409Z,78.63
2019-05-22T04:11:08.929Z,77.58
2019-05-22T04:13:38.707Z,78.33
2019-05-22T04:16:10.057Z,78.13
2019-05-22T04:18:45.066Z,78.95
2019-05-22T04:21:14.229Z,78.58
2019-05-22T04:23:49.282Z,77.91
2019-05-22T04:26:21.618Z,77.40
2019-05-22T04:28:55.744Z,75.41
2019-05-22T04:31:51.871Z,76.02
2019-05-22T04:34:21.787Z,75.15
2019-05-22T04:36:55.447Z,78.46
2019-05-22T04:39:29.381Z,76.50
2019-05-22T04:42:10.225Z,74.51
2019-05-22T04:44:52.347Z,74.33
2019-05-22T04:47:23.920Z,72.66
2019-05-22T04:50:06.705Z,73.79
2019-05-22T04:52:26.018Z,75.89
2019-05-22T04:54:55.706Z,74.26
2019-05-22T04:57:27.134Z,75.86
2019-05-22T05:00:04.145Z,74.80
2019-05-22T05:02:36.240Z,76.13
2019-05-22T05:05:13.534Z,77.99
2019-05-22T05:07:47.203Z,78.59
2019-05-22T05:10:18.422Z,76.30
2019-05-22T05:13:01.999Z,75.09
2019-05-22T05:15:31.103Z,77.77
2019-05-22T05:18:00.624Z,78.87
2019-05-22T05:20:31.036Z,79.27
2019-05-22T05:23:00.282Z,79.90
2019-05-22T05:25:35.897Z,79.19
2019-05-22T05:28:10.176Z,77.55
2019-05-22T05:30:39.398Z,76.55
2019-05-22T05:33:11.158Z,75.83
2019-05-22T05:35:43.097Z,75.87
2019-05-22T05:38:21.280Z,77.71
2019-05-22T05:40:53.501Z,77.86
2019-05-22T05:43:24.607Z,78.42
2019-05-22T05:45:54.672Z,76.74
2019-05-22T05:48:29.140Z,77.90
2019-05-22T05:51:29.016Z,77.07
2019-05-22T05:54:20.330Z,76.77
2019-05-22T05:56:50.713Z,78.79
2019-05-22T05:59:21.873Z,78.74
2019-05-22T06:01:55.738Z,78.20
2019-05-22T06:04:36.418Z,76.87
2019-05-22T06:07:21.658Z,76.46
2019-05-22T06:10:40.100Z,77.62
2019-05-22T06:13:09.706Z,76.36
2019-05-22T06:16:09.085Z,77.81
2019-05-22T06:18:57.142Z,79.48
2019-05-22T06:21:22.896Z,79.36
2019-05-22T06:24:23.498Z,78.00
2019-05-22T06:27:19.156Z,78.56
2019-05-22T06:30:05.280Z,76.78
2019-05-22T06:33:15.332Z,75.59
2019-05-22T06:35:45.369Z,76.48
2019-05-22T06:38:49.325Z,78.47
2019-05-22T06:41:24.345Z,79.19
2019-05-22T06:44:58.336Z,79.83
2019-05-22T06:47:31.876Z,78.31
2019-05-22T06:50:01.314Z,77.68
2019-05-22T06:52:30.773Z,77.18
2019-05-22T06:55:04.932Z,77.62
2019-05-22T06:57:36.919Z,78.10
2019-05-22T07:00:15.280Z,75.40
2019-05-22T07:02:44.375Z,75.61
2019-05-22T07:05:13.600Z,75.83
2019-05-22T07:07:42.773Z,75.50
2019-05-22T07:10:16.080Z,76.17
2019-05-22T07:12:50.473Z,77.39
2019-05-22T07:15:27.536Z,75.93
2019-05-22T07:17:59.880Z,76.27
2019-05-22T07:20:37.946Z,76.69
2019-05-22T07:23:10.277Z,77.71
2019-05-22T07:25:45.308Z,78.04
2019-05-22T07:28:18.487Z,78.36
2019-05-22T07:30:51.066Z,79.21
2019-05-22T07:33:24.370Z,77.78
2019-05-22T07:36:15.991Z,76.39
2019-05-22T07:38:24.808Z,77.46
2019-05-22T07:40:55.741Z,76.77
2019-05-22T07:43:28.226Z,75.34
2019-05-22T07:45:57.807Z,75.52
2019-05-22T07:48:33.381Z,76.64
2019-05-22T07:51:05.104Z,77.46
2019-05-22T07:53:34.218Z,75.58
2019-05-22T07:56:04.940Z,74.69
2019-05-22T07:58:36.381Z,75.71
2019-05-22T08:01:06.440Z,76.23
2019-05-22T08:03:37.023Z,75.55
2019-05-22T08:06:06.799Z,75.70
2019-05-22T08:08:37.039Z,74.22
2019-05-22T08:11:07.699Z,74.49
2019-05-22T08:13:39.791Z,73.45
2019-05-22T08:16:09.303Z,72.65
2019-05-22T08:18:41.138Z,73.10
2019-05-22T08:21:13.788Z,73.63
2019-05-22T08:23:43.100Z,74.11
2019-05-22T08:26:14.943Z,74.29
2019-05-22T08:28:44.319Z,73.42
2019-05-22T08:31:18.225Z,72.81
2019-05-22T08:33:49.073Z,69.96
2019-05-22T08:36:22.461Z,68.81
2019-05-22T08:38:53.219Z,70.46
2019-05-22T08:41:27.520Z,70.74
2019-05-22T08:44:15.499Z,73.32
2019-05-22T08:46:32.533Z,71.89
2019-05-22T08:49:04.711Z,69.12
2019-05-22T08:51:36.737Z,69.03
2019-05-22T08:54:09.223Z,70.63
2019-05-22T08:56:41.351Z,70.33
2019-05-22T08:59:19.637Z,68.36
2019-05-22T09:01:45.823Z,68.69
2019-05-22T09:04:16.135Z,68.88
2019-05-22T09:06:47.816Z,68.85
2019-05-22T09:09:18.647Z,68.82
2019-05-22T09:11:48.005Z,67.92
2019-05-22T09:14:18.838Z,68.41
2019-05-22T09:16:47.964Z,69.55
2019-05-22T09:19:18.315Z,69.37
2019-05-22T09:22:00.736Z,68.48
2019-05-22T09:24:33.337Z,68.96
2019-05-22T09:27:04.053Z,67.25
2019-05-22T09:29:36.201Z,64.77
2019-05-22T09:32:05.947Z,64.35
2019-05-22T09:34:40.610Z,65.34
2019-05-22T09:37:11.789Z,66.98
2019-05-22T09:39:41.426Z,67.99
2019-05-22T09:42:10.599Z,68.78
2019-05-22T09:44:41.017Z,68.62
2019-05-22T09:47:10.342Z,66.43
2019-05-22T09:49:40.082Z,67.37
2019-05-22T09:52:14.738Z,66.65
2019-05-22T09:54:44.127Z,65.58
2019-05-22T09:57:14.715Z,64.65
2019-05-22T09:59:52.250Z,65.02
2019-05-22T10:02:23.012Z,66.62
2019-05-22T10:04:52.521Z,66.21
2019-05-22T10:07:22.202Z,64.25
2019-05-22T10:09:51.930Z,63.73
2019-05-22T10:12:21.783Z,64.92
2019-05-22T10:14:51.493Z,63.10
2019-05-22T10:17:24.981Z,63.32
2019-05-22T10:19:54.517Z,63.07
2019-05-22T10:22:25.677Z,65.66
2019-05-22T10:25:13.747Z,66.29
2019-05-22T10:27:28.025Z,64.20
2019-05-22T10:30:00.315Z,63.10
2019-05-22T10:32:32.213Z,65.53
2019-05-22T10:35:03.239Z,63.81
2019-05-22T10:37:35.055Z,63.48
2019-05-22T10:40:04.560Z,61.09
2019-05-22T10:42:33.850Z,59.74
2019-05-22T10:45:03.668Z,61.57
2019-05-22T10:47:35.586Z,60.23
2019-05-22T10:50:06.387Z,59.75
2019-05-22T10:52:37.314Z,58.59
2019-05-22T10:55:10.170Z,59.92
2019-05-22T10:57:41.019Z,59.63
2019-05-22T11:00:15.531Z,59.78
2019-05-22T11:02:48.919Z,60.14
2019-05-22T11:05:22.557Z,59.47
2019-05-22T11:07:54.502Z,57.42
2019-05-22T11:10:28.176Z,58.61
2019-05-22T11:12:58.224Z,57.30
2019-05-22T11:15:28.160Z,53.36
2019-05-22T11:17:57.702Z,57.43
2019-05-22T11:20:30.010Z,59.84
2019-05-22T11:22:59.326Z,58.66
2019-05-22T11:25:30.299Z,57.42
2019-05-22T11:27:59.676Z,57.58
2019-05-22T11:30:32.228Z,55.90
2019-05-22T11:33:01.701Z,54.08
2019-05-22T11:35:33.243Z,53.00
2019-05-22T11:38:07.738Z,54.17
2019-05-22T11:40:43.459Z,56.81
2019-05-22T11:43:16.872Z,56.18
2019-05-22T11:45:52.346Z,54.99
2019-05-22T11:48:22.146Z,55.39
2019-05-22T11:50:55.943Z,54.71
2019-05-22T11:53:33.863Z,53.19
2019-05-22T11:56:05.680Z,53.22
2019-05-22T11:58:35.224Z,51.63
2019-05-22T12:01:07.668Z,51.30
2019-05-22T12:03:36.904Z,53.23
2019-05-22T12:06:15.704Z,55.41
2019-05-22T12:08:49.593Z,55.43
2019-05-22T12:11:24.136Z,54.48
2019-05-22T12:13:59.382Z,53.13
2019-05-22T12:16:30.001Z,53.19
2019-05-22T12:19:00.810Z,52.89
2019-05-22T12:21:36.508Z,52.62
2019-05-22T12:24:05.670Z,52.17
2019-05-22T12:26:36.624Z,51.40
2019-05-22T12:29:05.821Z,54.21
2019-05-22T12:31:38.299Z,53.83
2019-05-22T12:34:09.957Z,53.21
2019-05-22T12:36:39.584Z,52.17
2019-05-22T12:39:11.527Z,51.53
2019-05-22T12:41:43.697Z,50.32
2019-05-22T12:44:15.673Z,50.95
2019-05-22T12:46:47.947Z,52.15
2019-05-22T12:49:18.163Z,50.62
2019-05-22T12:51:50.068Z,50.08
2019-05-22T12:54:22.795Z,51.84
2019-05-22T12:56:55.821Z,49.36
2019-05-22T12:59:27.932Z,49.76
2019-05-22T13:01:58.140Z,46.78
2019-05-22T13:04:31.900Z,47.93
2019-05-22T13:07:03.093Z,50.10
2019-05-22T13:09:39.323Z,51.15
2019-05-22T13:12:15.765Z,47.16
2019-05-22T13:14:45.163Z,45.67
2019-05-22T13:17:15.694Z,45.78
2019-05-22T13:19:47.550Z,43.94
2019-05-22T13:22:29.158Z,45.32
2019-05-22T13:25:00.522Z,47.05
2019-05-22T13:27:33.123Z,46.84
2019-05-22T13:30:07.734Z,45.68
2019-05-22T13:32:38.817Z,46.34
2019-05-22T13:35:13.429Z,47.37
2019-05-22T13:37:44.188Z,48.00
2019-05-22T13:40:27.679Z,46.33
2019-05-22T13:42:50.909Z,44.91
2019-05-22T13:45:40.686Z,45.83
2019-05-22T13:48:15.683Z,44.73
2019-05-22T13:50:47.747Z,44.71
2019-05-22T13:53:19.660Z,43.77
2019-05-22T13:55:49.381Z,42.78
2019-05-22T13:58:21.537Z,44.59
2019-05-22T14:00:51.228Z,44.39
2019-05-22T14:03:21.492Z,44.29
2019-05-22T14:05:51.239Z,42.56
2019-05-22T14:08:26.622Z,45.08
2019-05-22T14:10:57.635Z,43.70
2019-05-22T14:13:28.645Z,44.67
2019-05-22T14:15:58.068Z,44.62
2019-05-22T14:18:30.547Z,44.19
2019-05-22T14:21:00.014Z,40.69
2019-05-22T14:23:29.169Z,42.05
2019-05-22T14:25:58.857Z,40.89
2019-05-22T14:28:28.684Z,39.50
2019-05-22T14:30:58.506Z,39.16
2019-05-22T14:33:30.627Z,39.08
2019-05-22T14:36:03.731Z,40.07
2019-05-22T14:38:33.517Z,38.91
2019-05-22T14:41:03.338Z,41.59
2019-05-22T14:43:34.082Z,43.46
2019-05-22T14:46:08.580Z,43.72
2019-05-22T14:48:40.341Z,45.12
2019-05-22T14:51:10.182Z,44.10
2019-05-22T14:53:40.728Z,43.44
2019-05-22T14:56:11.614Z,44.53
2019-05-22T14:58:42.249Z,47.57
2019-05-22T15:01:11.868Z,46.05
2019-05-22T15:03:46.737Z,45.43
2019-05-22T15:06:17.064Z,45.63
2019-05-22T15:08:46.797Z,45.42
2019-05-22T15:11:16.784Z,44.75
2019-05-22T15:13:46.609Z,47.58
2019-05-22T15:16:17.487Z,47.89
2019-05-22T15:18:46.999Z,47.13
2019-05-22T15:21:20.983Z,45.86
2019-05-22T15:23:53.892Z,46.05
2019-05-22T15:26:27.518Z,47.46
2019-05-22T15:29:05.050Z,47.24
2019-05-22T15:31:38.899Z,47.77
2019-05-22T15:34:11.700Z,47.69
2019-05-22T15:36:42.937Z,48.58
2019-05-22T15:39:22.755Z,49.00
2019-05-22T15:41:51.596Z,48.97
2019-05-22T15:44:21.316Z,49.73
2019-05-22T15:46:51.786Z,52.26
2019-05-22T15:49:26.169Z,51.60
2019-05-22T15:51:58.609Z,52.00
2019-05-22T15:54:29.293Z,50.33
2019-05-22T15:57:01.287Z,50.46
2019-05-22T15:59:33.089Z,50.66
2019-05-22T16:02:06.643Z,49.84
2019-05-22T16:04:37.191Z,51.51
2019-05-22T16:07:09.538Z,50.97
2019-05-22T16:09:40.817Z,49.55
2019-05-22T16:12:11.573Z,50.29
2019-05-22T16:14:41.471Z,50.35
2019-05-22T16:17:12.442Z,49.26
2019-05-22T16:19:44.008Z,49.18
2019-05-22T16:22:13.628Z,47.83
2019-05-22T16:24:43.143Z,48.53
2019-05-22T16:27:15.009Z,48.73
2019-05-22T16:29:44.849Z,50.02
2019-05-22T16:32:16.050Z,49.03
2019-05-22T16:34:47.945Z,48.50
2019-05-22T16:37:17.702Z,47.70
2019-05-22T16:39:50.580Z,48.54
2019-05-22T16:42:23.208Z,46.50
2019-05-22T16:44:53.259Z,46.27
2019-05-22T16:47:22.964Z,45.78
2019-05-22T16:49:58.318Z,47.67
2019-05-22T16:52:30.268Z,48.57
2019-05-22T16:54:59.957Z,47.29
2019-05-22T16:57:30.791Z,46.78
2019-05-22T17:00:01.275Z,45.31
2019-05-22T17:02:38.078Z,45.71
2019-05-22T17:05:15.209Z,47.21
2019-05-22T17:07:46.224Z,45.51
2019-05-22T17:10:18.228Z,47.71
2019-05-22T17:12:55.942Z,46.55
2019-05-22T17:15:27.862Z,47.58
2019-05-22T17:17:57.316Z,47.30
2019-05-22T17:20:30.058Z,47.31
2019-05-22T17:22:59.423Z,46.10
2019-05-22T17:25:34.649Z,47.81
2019-05-22T17:28:05.123Z,48.93
2019-05-22T17:30:35.110Z,48.23
2019-05-22T17:33:04.432Z,48.79
2019-05-22T17:35:35.282Z,48.22
2019-05-22T17:38:06.179Z,49.33
2019-05-22T17:40:38.902Z,49.23
2019-05-22T17:43:12.154Z,49.33
2019-05-22T17:45:44.921Z,49.20
2019-05-22T17:48:15.260Z,49.15
2019-05-22T17:50:46.351Z,49.78
2019-05-22T17:53:20.424Z,49.73
2019-05-22T17:55:49.979Z,49.67
2019-05-22T17:58:20.247Z,49.67
2019-05-22T18:00:51.275Z,50.68
2019-05-22T18:03:22.745Z,51.13
2019-05-22T18:05:52.518Z,50.05
2019-05-22T18:08:24.007Z,50.95
2019-05-22T18:11:00.576Z,50.72
2019-05-22T18:13:34.182Z,50.87
2019-05-22T18:16:08.997Z,51.52
2019-05-22T18:18:38.546Z,50.94
2019-05-22T18:21:10.461Z,50.90
2019-05-22T18:23:39.020Z,51.50
2019-05-22T18:26:12.174Z,50.80
2019-05-22T18:28:42.096Z,51.59
2019-05-22T18:31:11.594Z,51.06
2019-05-22T18:33:40.913Z,50.92
2019-05-22T18:36:10.053Z,51.71
2019-05-22T18:38:39.238Z,52.23
2019-05-22T18:41:08.428Z,52.59
2019-05-22T18:43:45.110Z,52.75
2019-05-22T18:46:14.612Z,52.78
2019-05-22T18:48:48.120Z,53.13
2019-05-22T18:51:20.818Z,53.00
2019-05-22T18:53:55.087Z,53.62
2019-05-22T18:56:24.658Z,53.89
2019-05-22T18:58:55.715Z,54.45
2019-05-22T19:01:25.721Z,55.11
2019-05-22T19:03:57.574Z,54.50
2019-05-22T19:06:30.722Z,54.86
2019-05-22T19:08:59.204Z,54.83
2019-05-22T19:11:30.147Z,54.44
2019-05-22T19:13:59.380Z,54.70
2019-05-22T19:16:34.805Z,54.86
2019-05-22T19:19:04.019Z,55.95
2019-05-22T19:21:34.331Z,55.47
2019-05-22T19:24:03.520Z,55.24
2019-05-22T19:26:32.662Z,55.65
2019-05-22T19:29:08.818Z,55.58
2019-05-22T19:31:41.568Z,55.36
2019-05-22T19:34:14.001Z,55.58
2019-05-22T19:36:46.042Z,55.60
2019-05-22T19:39:15.589Z,56.29
2019-05-22T19:41:59.857Z,55.83
2019-05-22T19:44:17.156Z,55.24
2019-05-22T19:46:49.599Z,55.44
2019-05-22T19:49:20.300Z,56.28
2019-05-22T19:51:50.149Z,56.25
2019-05-22T19:54:20.653Z,55.68
2019-05-22T19:56:50.234Z,55.60
2019-05-22T19:59:19.951Z,56.80
2019-05-22T20:01:49.309Z,56.75
2019-05-22T20:04:18.615Z,56.82
2019-05-22T20:06:51.273Z,56.97
2019-05-22T20:09:25.715Z,56.22
2019-05-22T20:11:56.842Z,56.30
2019-05-22T20:14:30.640Z,56.25
2019-05-22T20:16:59.457Z,56.07
2019-05-22T20:19:32.533Z,55.98
2019-05-22T20:22:01.850Z,56.02
2019-05-22T20:24:33.561Z,55.71
2019-05-22T20:27:04.577Z,55.95
2019-05-22T20:29:36.494Z,56.18
2019-05-22T20:32:06.529Z,56.20
2019-05-22T20:34:39.053Z,56.53
2019-05-22T20:37:13.180Z,56.78
2019-05-22T20:39:44.331Z,57.21
2019-05-22T20:42:17.819Z,56.93
2019-05-22T20:44:50.177Z,57.53
2019-05-22T20:47:22.563Z,57.30
2019-05-22T20:49:55.306Z,57.75
2019-05-22T20:52:27.419Z,58.53
2019-05-22T20:54:59.442Z,59.55
2019-05-22T20:57:30.118Z,59.46
2019-05-22T21:00:02.517Z,58.80
2019-05-22T21:02:32.881Z,58.94
2019-05-22T21:05:05.579Z,59.11
2019-05-22T21:07:37.166Z,58.91
2019-05-22T21:10:10.101Z,59.28
2019-05-22T21:12:41.146Z,59.20
2019-05-22T21:15:12.286Z,59.54
2019-05-22T21:17:46.264Z,59.51
2019-05-22T21:20:21.002Z,60.08
2019-05-22T21:22:50.311Z,60.02
2019-05-22T21:25:23.804Z,61.21
2019-05-22T21:27:53.350Z,62.41
2019-05-22T21:30:26.142Z,60.70
2019-05-22T21:32:55.896Z,60.03
2019-05-22T21:35:26.359Z,60.04
2019-05-22T21:37:56.886Z,62.31
2019-05-22T21:40:28.625Z,60.97
2019-05-22T21:43:01.912Z,62.62
2019-05-22T21:45:34.375Z,64.24
2019-05-22T21:48:05.432Z,64.72
2019-05-22T21:50:35.124Z,65.24
2019-05-22T21:53:06.295Z,64.97
2019-05-22T21:55:36.824Z,65.30
2019-05-22T21:58:06.722Z,65.16
2019-05-22T22:01:16.032Z,65.22
2019-05-22T22:03:47.630Z,66.71
2019-05-22T22:06:17.196Z,67.57
2019-05-22T22:08:49.893Z,69.00
2019-05-22T22:11:20.614Z,67.56
2019-05-22T22:13:55.406Z,67.63
2019-05-22T22:16:30.464Z,67.61
2019-05-22T22:18:59.786Z,70.00
2019-05-22T22:21:32.128Z,70.52
2019-05-22T22:24:06.227Z,71.54
2019-05-22T22:26:36.618Z,71.97
2019-05-22T22:29:09.367Z,71.66
2019-05-22T22:31:38.218Z,71.49
2019-05-22T22:34:36.084Z,70.88
2019-05-22T22:37:06.932Z,71.21
2019-05-22T22:39:37.733Z,70.43
2019-05-22T22:42:10.506Z,70.49
2019-05-22T22:44:40.209Z,70.93
2019-05-22T22:47:15.390Z,71.63
2019-05-22T22:52:32.379Z,72.06
2019-05-22T22:55:03.847Z,72.76
2019-05-22T22:57:33.658Z,72.24
2019-05-22T23:00:04.556Z,71.85
2019-05-22T23:02:36.226Z,71.95
2019-05-22T23:05:06.248Z,73.05
2019-05-22T23:07:41.411Z,73.19
2019-05-22T23:10:15.546Z,73.41
2019-05-22T23:12:48.387Z,72.78
2019-05-22T23:15:20.499Z,73.13
2019-05-22T23:17:52.320Z,73.12
2019-05-22T23:20:19.899Z,73.32
2019-05-22T23:22:47.973Z,73.24
2019-05-22T23:25:18.538Z,73.96
2019-05-22T23:27:55.261Z,73.53
2019-05-22T23:30:30.711Z,72.93
2019-05-22T23:32:59.092Z,72.11
2019-05-22T23:35:26.891Z,71.07
2019-05-22T23:37:59.052Z,71.00
2019-05-22T23:40:32.137Z,69.52
2019-05-22T23:43:03.605Z,69.04
2019-05-22T23:45:33.837Z,68.02
2019-05-22T23:48:16.150Z,66.42
2019-05-22T23:50:47.150Z,69.21
2019-05-22T23:53:18.477Z,71.00
2019-05-22T23:55:55.813Z,69.04
2019-05-22T23:58:26.276Z,69.71
